Pagrindinis puslapis
METAR-TAF:

METAR-TAF

Oro uostai :

Jämsä, Suomija

platuma: 61-51N, ilguma: 024-48E, Aukštis: 143 m

Dabartinis oras

Ataskaita buvo paskelbta 35 minutes, ne 08:50 UTC
Vėjas 10 kt iš Vakarų
Temperatūra 16°C
Drėgmė 82%
Slėgis 995 hPa
Matomumas 10 km arba daugiau
Su prošvaistėmis ne aukštis 1200 ft

METAR: EFHA 310850Z AUTO 28010KT 9999 BKN012 16/13 Q0995

Laikas: 12:25 (09:25 UTC)


TAF: trūkstamas

Orai ataskaitas ir orų prognozės (METAR, TAF).

turimą stotys yra geltonos ir raudonos taškus žemėlapyje.

Perkelti pele per norėdami pamatyti stoties vardą.

Tada spustelėkite, norėdami matyti oro stebėjimo ir prognozės.

Norėdami pakeisti žemėlapį: spustelėkite ant žalios mygtukų su juodo kryžiaus žemyn,; žalią mygtuką su brūkšneliu, jei norite nutolinti; arba žalių rodyklių gretimoms žemėlapius.


METAR-TAF: